createdAt,value
2022-10-14T00:01:33.034Z,11.20
2022-10-14T00:04:02.350Z,11.17
2022-10-14T00:06:34.280Z,11.00
2022-10-14T00:09:06.801Z,10.50
2022-10-14T00:11:39.059Z,10.97
2022-10-14T00:14:11.653Z,10.87
2022-10-14T00:16:44.383Z,11.03
2022-10-14T00:19:15.722Z,11.00
2022-10-14T00:21:46.959Z,10.60
2022-10-14T00:24:18.919Z,10.33
2022-10-14T00:26:49.084Z,10.10
2022-10-14T00:29:19.831Z,10.10
2022-10-14T00:31:51.780Z,10.10
2022-10-14T00:34:20.931Z,10.37
2022-10-14T00:36:49.673Z,10.23
2022-10-14T00:39:20.778Z,10.20
2022-10-14T00:41:50.782Z,10.00
2022-10-14T00:47:01.919Z,10.47
2022-10-14T00:49:35.278Z,10.03
2022-10-14T00:52:10.168Z,9.97
2022-10-14T00:54:45.280Z,10.13
2022-10-14T00:57:15.205Z,10.40
2022-10-14T00:59:43.907Z,9.43
2022-10-14T01:02:13.996Z,10.50
2022-10-14T01:04:46.680Z,10.00
2022-10-14T01:07:33.049Z,10.17
2022-10-14T01:10:15.018Z,10.00
2022-10-14T01:13:06.151Z,10.30
2022-10-14T01:15:45.624Z,9.47
2022-10-14T01:18:38.257Z,10.57
2022-10-14T01:21:19.277Z,10.27
2022-10-14T01:24:41.784Z,10.20
2022-10-14T01:27:55.259Z,10.60
2022-10-14T01:30:27.835Z,9.77
2022-10-14T01:33:12.847Z,10.03
2022-10-14T01:36:01.186Z,9.97
2022-10-14T01:38:35.956Z,9.73
2022-10-14T01:41:15.323Z,10.40
2022-10-14T01:43:49.699Z,9.97
2022-10-14T01:46:24.016Z,10.63
2022-10-14T01:48:59.404Z,9.80
2022-10-14T01:51:35.902Z,10.10
2022-10-14T01:54:11.263Z,10.10
2022-10-14T01:56:42.739Z,10.53
2022-10-14T01:59:16.331Z,9.47
2022-10-14T02:01:46.383Z,9.70
2022-10-14T02:04:19.646Z,10.07
2022-10-14T02:06:58.956Z,10.33
2022-10-14T02:09:37.425Z,10.30
2022-10-14T02:12:23.139Z,10.07
2022-10-14T02:15:11.154Z,9.63
2022-10-14T02:17:55.184Z,9.90
2022-10-14T02:20:33.289Z,9.93
2022-10-14T02:23:14.760Z,9.83
2022-10-14T02:25:47.986Z,9.90
2022-10-14T02:28:21.930Z,9.50
2022-10-14T02:30:57.082Z,9.90
2022-10-14T02:33:37.816Z,9.23
2022-10-14T02:36:13.568Z,9.43
2022-10-14T02:38:44.604Z,9.70
2022-10-14T02:41:20.361Z,9.47
2022-10-14T02:43:53.006Z,9.20
2022-10-14T02:46:23.945Z,9.83
2022-10-14T02:48:53.986Z,8.87
2022-10-14T02:51:22.624Z,10.27
2022-10-14T02:53:51.353Z,9.20
2022-10-14T02:56:20.651Z,9.73
2022-10-14T02:58:49.398Z,9.23
2022-10-14T03:01:18.448Z,9.17
2022-10-14T03:03:47.215Z,9.43
2022-10-14T03:06:17.636Z,9.90
2022-10-14T03:08:48.195Z,9.83
2022-10-14T03:11:17.132Z,9.50
2022-10-14T03:13:46.352Z,9.33
2022-10-14T03:16:15.107Z,9.87
2022-10-14T03:18:46.728Z,9.17
2022-10-14T03:21:24.771Z,8.93
2022-10-14T03:23:54.184Z,9.27
2022-10-14T03:26:31.289Z,9.20
2022-10-14T03:29:00.006Z,8.60
2022-10-14T03:31:43.260Z,9.30
2022-10-14T03:34:31.780Z,9.43
2022-10-14T03:37:08.924Z,9.07
2022-10-14T03:39:45.997Z,8.97
2022-10-14T03:42:16.443Z,9.23
2022-10-14T03:44:49.181Z,9.20
2022-10-14T03:47:28.230Z,8.87
2022-10-14T03:49:56.922Z,8.73
2022-10-14T03:52:33.384Z,8.47
2022-10-14T03:55:08.849Z,8.87
2022-10-14T03:57:37.533Z,9.07
2022-10-14T04:00:09.758Z,9.83
2022-10-14T04:05:22.067Z,8.43
2022-10-14T04:07:52.134Z,8.93
2022-10-14T04:10:20.040Z,9.23
2022-10-14T04:12:54.888Z,9.50
2022-10-14T04:15:32.204Z,8.43
2022-10-14T04:18:15.902Z,9.00
2022-10-14T04:20:47.338Z,8.03
2022-10-14T04:23:18.081Z,8.67
2022-10-14T04:25:48.987Z,8.43
2022-10-14T04:28:18.339Z,8.43
2022-10-14T04:30:57.905Z,8.80
2022-10-14T04:33:32.551Z,8.63
2022-10-14T04:36:11.286Z,8.87
2022-10-14T04:38:42.638Z,9.37
2022-10-14T04:41:12.883Z,9.00
2022-10-14T04:43:47.900Z,8.70
2022-10-14T04:46:27.207Z,9.90
2022-10-14T04:48:56.487Z,8.83
2022-10-14T04:51:32.626Z,8.67
2022-10-14T04:54:18.516Z,9.00
2022-10-14T04:56:52.179Z,8.37
2022-10-14T04:59:21.412Z,9.23
2022-10-14T05:02:08.314Z,8.97
2022-10-14T05:04:45.248Z,10.30
2022-10-14T05:07:16.676Z,11.87
2022-10-14T05:09:50.373Z,10.20
2022-10-14T05:12:29.476Z,12.23
2022-10-14T05:15:01.806Z,9.90
2022-10-14T05:17:37.957Z,11.13
2022-10-14T05:20:09.137Z,13.73
2022-10-14T05:22:42.652Z,10.00
2022-10-14T05:25:11.778Z,10.07
2022-10-14T05:27:41.141Z,10.47
2022-10-14T05:30:12.087Z,9.70
2022-10-14T05:32:46.579Z,9.50
2022-10-14T05:35:15.508Z,8.93
2022-10-14T05:37:45.574Z,8.97
2022-10-14T05:40:14.330Z,9.47
2022-10-14T05:42:42.930Z,10.10
2022-10-14T05:45:12.502Z,9.27
2022-10-14T05:47:48.260Z,9.07
2022-10-14T05:50:20.214Z,9.47
2022-10-14T05:52:51.286Z,9.57
2022-10-14T05:55:25.879Z,9.60
2022-10-14T05:57:59.568Z,10.90
2022-10-14T06:00:34.846Z,10.37
2022-10-14T06:03:11.469Z,9.80
2022-10-14T06:05:41.069Z,11.10
2022-10-14T06:08:11.814Z,10.57
2022-10-14T06:10:40.723Z,10.80
2022-10-14T06:13:09.387Z,10.53
2022-10-14T06:15:40.475Z,9.67
2022-10-14T06:18:09.154Z,9.63
2022-10-14T06:20:37.939Z,10.47
2022-10-14T06:23:06.901Z,10.63
2022-10-14T06:25:38.070Z,10.43
2022-10-14T06:28:07.299Z,10.03
2022-10-14T06:30:36.100Z,10.57
2022-10-14T06:33:04.805Z,10.10
2022-10-14T06:35:33.531Z,9.23
2022-10-14T06:38:02.187Z,9.87
2022-10-14T06:40:31.006Z,9.87
2022-10-14T06:43:01.338Z,10.30
2022-10-14T06:45:30.210Z,10.10
2022-10-14T06:47:59.432Z,9.43
2022-10-14T06:50:28.131Z,10.80
2022-10-14T06:53:10.821Z,11.40
2022-10-14T06:55:39.429Z,11.47
2022-10-14T06:58:09.415Z,12.53
2022-10-14T07:00:38.321Z,11.60
2022-10-14T07:03:07.100Z,12.30
2022-10-14T07:05:36.862Z,11.80
2022-10-14T07:08:06.178Z,16.30
2022-10-14T07:10:35.968Z,14.67
2022-10-14T07:13:04.642Z,13.43
2022-10-14T07:15:36.222Z,13.70
2022-10-14T07:18:06.633Z,14.73
2022-10-14T07:20:36.011Z,14.83
2022-10-14T07:23:04.637Z,14.97
2022-10-14T07:25:34.080Z,16.50
2022-10-14T07:28:02.698Z,14.30
2022-10-14T07:30:31.568Z,14.90
2022-10-14T07:33:02.271Z,14.73
2022-10-14T07:35:30.987Z,13.03
2022-10-14T07:38:01.157Z,26.90
2022-10-14T07:40:30.106Z,49.33
2022-10-14T07:42:58.671Z,37.60
2022-10-14T07:45:27.267Z,63.33
2022-10-14T07:47:55.923Z,42.63
2022-10-14T07:50:25.984Z,33.83
2022-10-14T07:52:58.891Z,23.53
2022-10-14T07:55:29.560Z,15.47
2022-10-14T07:57:58.152Z,21.60
2022-10-14T08:00:26.844Z,15.63
2022-10-14T08:02:55.972Z,10.40
2022-10-14T08:05:37.773Z,13.70
2022-10-14T08:08:07.467Z,10.77
2022-10-14T08:10:36.982Z,10.20
2022-10-14T08:13:06.360Z,10.57
2022-10-14T08:15:38.812Z,16.87
2022-10-14T08:18:08.390Z,21.20
2022-10-14T08:20:38.775Z,19.73
2022-10-14T08:23:07.388Z,19.37
2022-10-14T08:25:37.726Z,12.03
2022-10-14T08:28:06.540Z,27.17
2022-10-14T08:30:35.214Z,17.80
2022-10-14T08:33:03.910Z,21.10
2022-10-14T08:35:32.518Z,10.03
2022-10-14T08:38:03.480Z,13.23
2022-10-14T08:40:49.114Z,9.57
2022-10-14T08:43:31.286Z,28.63
2022-10-14T08:46:12.549Z,19.93
2022-10-14T08:48:41.864Z,10.10
2022-10-14T08:51:15.505Z,13.47
2022-10-14T08:53:51.545Z,20.20
2022-10-14T08:56:21.849Z,6.40
2022-10-14T08:58:54.499Z,10.63
2022-10-14T09:01:29.038Z,6.30
2022-10-14T09:04:01.911Z,9.53
2022-10-14T09:06:34.624Z,27.20
2022-10-14T09:09:15.479Z,10.20
2022-10-14T09:11:49.358Z,7.53
2022-10-14T09:14:22.846Z,5.00
2022-10-14T09:16:58.012Z,5.70
2022-10-14T09:19:33.381Z,5.20
2022-10-14T09:22:03.423Z,4.67
2022-10-14T09:24:36.681Z,4.40
2022-10-14T09:27:08.594Z,4.77
2022-10-14T09:29:47.972Z,4.67
2022-10-14T09:32:28.370Z,3.90
2022-10-14T09:34:58.696Z,4.67
2022-10-14T09:37:30.909Z,4.77
2022-10-14T09:40:11.455Z,4.90
2022-10-14T09:42:49.876Z,5.67
2022-10-14T09:45:22.652Z,4.20
2022-10-14T09:47:56.710Z,3.93
2022-10-14T09:50:32.049Z,4.40
2022-10-14T09:53:09.248Z,5.30
2022-10-14T09:55:49.397Z,5.30
2022-10-14T09:58:26.656Z,4.27
2022-10-14T10:00:59.299Z,4.33
2022-10-14T10:03:32.613Z,4.30
2022-10-14T10:06:05.653Z,3.60
2022-10-14T10:08:35.311Z,3.60
2022-10-14T10:11:10.531Z,3.47
2022-10-14T10:13:46.232Z,3.10
2022-10-14T10:16:26.882Z,3.20
2022-10-14T10:18:57.426Z,2.50
2022-10-14T10:21:29.861Z,8.10
2022-10-14T10:24:01.485Z,2.90
2022-10-14T10:26:33.903Z,1.90
2022-10-14T10:29:06.132Z,1.83
2022-10-14T10:32:12.215Z,2.10
2022-10-14T10:35:09.131Z,1.70
2022-10-14T10:37:50.460Z,1.50
2022-10-14T10:40:53.141Z,1.63
2022-10-14T10:43:53.617Z,2.13
2022-10-14T10:47:00.868Z,2.57
2022-10-14T10:50:08.707Z,3.43
2022-10-14T10:53:01.338Z,3.73
2022-10-14T10:55:40.759Z,3.50
2022-10-14T10:58:26.345Z,4.07
2022-10-14T11:01:08.169Z,3.73
2022-10-14T11:03:57.830Z,3.80
2022-10-14T11:06:55.951Z,3.47
2022-10-14T11:09:58.160Z,3.20
2022-10-14T11:12:35.890Z,3.60
2022-10-14T11:15:23.695Z,2.93
2022-10-14T11:18:01.526Z,3.37
2022-10-14T11:20:44.735Z,3.33
2022-10-14T11:23:41.418Z,3.30
2022-10-14T11:26:29.915Z,3.30
2022-10-14T11:29:18.938Z,2.90
2022-10-14T11:32:04.116Z,3.33
2022-10-14T11:34:49.870Z,2.83
2022-10-14T11:37:35.955Z,2.93
2022-10-14T11:40:21.269Z,3.30
2022-10-14T11:43:10.362Z,2.57
2022-10-14T11:45:50.058Z,2.73
2022-10-14T11:48:31.259Z,2.90
2022-10-14T11:51:12.683Z,2.70
2022-10-14T11:54:04.926Z,2.70
2022-10-14T11:56:43.521Z,3.03
2022-10-14T11:59:55.928Z,3.00
2022-10-14T12:02:42.055Z,2.80
2022-10-14T12:05:22.762Z,2.50
2022-10-14T12:08:10.910Z,2.80
2022-10-14T12:12:15.810Z,2.63
2022-10-14T12:14:50.226Z,2.60
2022-10-14T12:17:27.349Z,2.60
2022-10-14T12:19:57.071Z,2.93
2022-10-14T12:22:30.570Z,2.50
2022-10-14T12:25:07.476Z,2.60
2022-10-14T12:27:37.957Z,2.47
2022-10-14T12:30:37.083Z,2.20
2022-10-14T12:33:10.653Z,2.80
2022-10-14T12:36:00.975Z,2.40
2022-10-14T12:38:34.626Z,2.10
2022-10-14T12:41:43.618Z,2.30
2022-10-14T12:44:18.768Z,2.10
2022-10-14T12:46:53.219Z,2.40
2022-10-14T12:49:31.412Z,2.63
2022-10-14T12:52:04.613Z,2.30
2022-10-14T12:54:35.739Z,2.57
2022-10-14T12:57:20.729Z,2.10
2022-10-14T12:59:53.787Z,2.47
2022-10-14T13:02:35.570Z,2.47
2022-10-14T13:05:10.332Z,2.30
2022-10-14T13:07:46.330Z,2.00
2022-10-14T13:10:50.696Z,2.17
2022-10-14T13:14:21.108Z,2.17
2022-10-14T13:17:01.347Z,2.20
2022-10-14T13:19:46.738Z,2.30
2022-10-14T13:22:43.719Z,2.03
2022-10-14T13:25:21.867Z,2.23
2022-10-14T13:28:17.056Z,2.30
2022-10-14T13:31:04.985Z,2.07
2022-10-14T13:33:43.689Z,2.40
2022-10-14T13:36:23.774Z,2.17
2022-10-14T13:38:59.815Z,2.30
2022-10-14T13:41:31.575Z,2.30
2022-10-14T13:44:03.502Z,1.93
2022-10-14T13:46:42.503Z,2.40
2022-10-14T13:49:21.006Z,6.23
2022-10-14T13:51:54.549Z,2.40
2022-10-14T13:54:25.999Z,1.80
2022-10-14T13:57:34.735Z,2.10
2022-10-14T14:02:49.044Z,2.30
2022-10-14T14:05:27.725Z,2.13
2022-10-14T14:11:17.299Z,2.27
2022-10-14T14:14:01.063Z,2.43
2022-10-14T14:16:39.531Z,2.30
2022-10-14T14:19:20.937Z,2.40
2022-10-14T14:21:51.489Z,5.70
2022-10-14T14:24:25.402Z,2.47
2022-10-14T14:26:56.921Z,2.10
2022-10-14T14:29:30.262Z,2.13
2022-10-14T14:32:09.026Z,1.90
2022-10-14T14:34:44.065Z,2.20
2022-10-14T14:37:43.934Z,1.90
2022-10-14T14:40:20.791Z,2.10
2022-10-14T14:42:53.960Z,2.23
2022-10-14T14:45:26.671Z,1.90
2022-10-14T14:47:59.424Z,2.00
2022-10-14T14:50:38.340Z,1.70
2022-10-14T14:53:16.083Z,2.30
2022-10-14T14:55:58.770Z,2.03
2022-10-14T14:58:35.509Z,2.20
2022-10-14T15:01:08.617Z,2.27
2022-10-14T15:04:12.258Z,2.07
2022-10-14T15:06:51.888Z,2.43
2022-10-14T15:09:27.765Z,2.47
2022-10-14T15:11:59.027Z,2.20
2022-10-14T15:14:35.444Z,2.50
2022-10-14T15:17:06.847Z,2.47
2022-10-14T15:19:38.790Z,2.10
2022-10-14T15:22:29.646Z,2.37
2022-10-14T15:25:03.958Z,2.40
2022-10-14T15:27:49.423Z,2.17
2022-10-14T15:30:27.332Z,2.00
2022-10-14T15:33:00.154Z,2.50
2022-10-14T15:35:30.760Z,2.50
2022-10-14T15:38:00.890Z,2.40
2022-10-14T15:40:32.905Z,3.43
2022-10-14T15:43:01.597Z,3.53
2022-10-14T15:45:30.414Z,5.33
2022-10-14T15:48:05.154Z,4.43
2022-10-14T15:50:36.228Z,5.93
2022-10-14T15:53:06.323Z,6.20
2022-10-14T15:55:35.977Z,6.40
2022-10-14T15:58:09.365Z,6.37
2022-10-14T16:00:38.352Z,5.17
2022-10-14T16:03:07.786Z,5.20
2022-10-14T16:05:38.733Z,5.57
2022-10-14T16:08:15.314Z,3.70
2022-10-14T16:10:47.283Z,3.57
2022-10-14T16:13:17.107Z,3.87
2022-10-14T16:15:50.425Z,3.90
2022-10-14T16:18:22.384Z,3.70
2022-10-14T16:20:53.597Z,4.20
2022-10-14T16:23:29.650Z,4.70
2022-10-14T16:26:02.013Z,5.83
2022-10-14T16:28:31.134Z,5.13
2022-10-14T16:31:01.193Z,5.60
2022-10-14T16:33:30.154Z,5.37
2022-10-14T16:36:00.211Z,5.50
2022-10-14T16:38:30.792Z,4.70
2022-10-14T16:41:02.316Z,4.53
2022-10-14T16:43:31.602Z,5.10
2022-10-14T16:46:03.654Z,6.10
2022-10-14T16:48:34.199Z,6.47
2022-10-14T16:51:03.379Z,5.53
2022-10-14T16:53:45.103Z,6.20
2022-10-14T16:56:35.017Z,5.60
2022-10-14T16:59:05.154Z,6.00
2022-10-14T17:01:33.974Z,6.60
2022-10-14T17:04:03.965Z,6.60
2022-10-14T17:06:33.542Z,8.00
2022-10-14T17:09:04.437Z,8.70
2022-10-14T17:11:33.767Z,10.13
2022-10-14T17:14:03.924Z,10.53
2022-10-14T17:16:33.381Z,9.90
2022-10-14T17:19:02.884Z,8.60
2022-10-14T17:21:31.952Z,9.47
2022-10-14T17:24:03.520Z,9.90
2022-10-14T17:26:35.056Z,9.73
2022-10-14T17:29:04.653Z,10.90
2022-10-14T17:31:34.404Z,9.60
2022-10-14T17:34:05.317Z,9.37
2022-10-14T17:36:34.647Z,9.53
2022-10-14T17:39:06.345Z,9.60
2022-10-14T17:41:36.137Z,9.80
2022-10-14T17:44:06.744Z,9.97
2022-10-14T17:46:37.630Z,10.00
2022-10-14T17:49:10.703Z,10.20
2022-10-14T17:51:40.875Z,10.77
2022-10-14T17:54:13.392Z,11.57
2022-10-14T17:56:44.938Z,10.70
2022-10-14T17:59:14.483Z,11.33
2022-10-14T18:02:01.582Z,10.93
2022-10-14T18:04:32.673Z,10.67
2022-10-14T18:07:02.386Z,10.40
2022-10-14T18:09:34.169Z,11.30
2022-10-14T18:12:08.908Z,10.70
2022-10-14T18:14:41.142Z,11.50
2022-10-14T18:17:12.474Z,12.17
2022-10-14T18:19:45.031Z,11.43
2022-10-14T18:22:17.917Z,11.53
2022-10-14T18:24:49.137Z,12.17
2022-10-14T18:27:18.196Z,11.47
2022-10-14T18:29:47.420Z,11.20
2022-10-14T18:37:22.051Z,12.33
2022-10-14T18:39:49.495Z,12.40
2022-10-14T18:42:20.079Z,12.73
2022-10-14T18:44:49.912Z,13.20
2022-10-14T18:47:19.374Z,12.07
2022-10-14T18:49:49.796Z,12.07
2022-10-14T18:52:23.031Z,13.30
2022-10-14T18:54:53.685Z,14.23
2022-10-14T18:57:24.142Z,15.23
2022-10-14T18:59:53.584Z,16.00
2022-10-14T19:02:22.936Z,14.57
2022-10-14T19:04:52.782Z,13.70
2022-10-14T19:07:21.430Z,16.10
2022-10-14T19:09:51.901Z,15.17
2022-10-14T19:12:42.759Z,15.53
2022-10-14T19:15:12.635Z,13.73
2022-10-14T19:17:42.930Z,13.93
2022-10-14T19:20:12.115Z,13.97
2022-10-14T19:22:44.889Z,14.00
2022-10-14T19:25:13.597Z,13.60
2022-10-14T19:27:43.980Z,15.37
2022-10-14T19:30:13.577Z,13.00
2022-10-14T19:32:42.215Z,12.40
2022-10-14T19:35:11.055Z,13.50
2022-10-14T19:37:39.678Z,12.60
2022-10-14T19:40:10.136Z,13.37
2022-10-14T19:42:38.851Z,13.70
2022-10-14T19:45:10.190Z,14.13
2022-10-14T19:47:39.223Z,13.00
2022-10-14T19:50:09.683Z,13.73
2022-10-14T19:52:38.263Z,12.30
2022-10-14T19:55:08.604Z,11.97
2022-10-14T19:57:37.243Z,12.90
2022-10-14T20:00:09.059Z,13.23
2022-10-14T20:05:08.395Z,12.83
2022-10-14T20:07:37.049Z,12.67
2022-10-14T20:10:07.009Z,13.23
2022-10-14T20:12:35.685Z,13.83
2022-10-14T20:15:04.699Z,13.63
2022-10-14T20:17:35.126Z,12.57
2022-10-14T20:20:03.789Z,14.20
2022-10-14T20:22:33.818Z,14.80
2022-10-14T20:25:02.395Z,14.50
2022-10-14T20:27:31.052Z,15.00
2022-10-14T20:29:59.795Z,14.87
2022-10-14T20:32:28.408Z,14.77
2022-10-14T20:35:01.809Z,14.13
2022-10-14T20:37:33.028Z,15.90
2022-10-14T20:40:02.066Z,14.80
2022-10-14T20:42:30.692Z,14.20
2022-10-14T20:44:59.267Z,15.57
2022-10-14T20:47:27.862Z,14.43
2022-10-14T20:49:57.967Z,15.47
2022-10-14T20:52:26.704Z,14.37
2022-10-14T20:54:55.339Z,13.60
2022-10-14T20:57:25.000Z,12.37
2022-10-14T20:59:53.857Z,13.43
2022-10-14T21:02:23.335Z,12.50
2022-10-14T21:04:54.110Z,13.20
2022-10-14T21:07:24.705Z,12.57
2022-10-14T21:09:53.648Z,12.13
2022-10-14T21:12:22.636Z,11.53
2022-10-14T21:14:51.615Z,12.43
2022-10-14T21:17:20.411Z,10.47
2022-10-14T21:19:50.165Z,10.57
2022-10-14T21:22:18.799Z,10.57
2022-10-14T21:24:48.803Z,9.40
2022-10-14T21:27:17.524Z,8.60
2022-10-14T21:29:46.236Z,8.20
2022-10-14T21:32:14.948Z,9.13
2022-10-14T21:34:43.537Z,8.47
2022-10-14T21:37:12.197Z,8.10
2022-10-14T21:39:40.900Z,7.90
2022-10-14T21:42:11.161Z,8.00
2022-10-14T21:44:39.832Z,7.43
2022-10-14T21:47:08.437Z,7.40
2022-10-14T21:49:37.168Z,7.27
2022-10-14T21:52:06.185Z,7.27
2022-10-14T21:54:34.850Z,11.13
2022-10-14T21:57:03.473Z,8.37
2022-10-14T21:59:33.460Z,7.40
2022-10-14T22:02:02.158Z,7.73
2022-10-14T22:04:34.510Z,8.00
2022-10-14T22:07:06.686Z,7.93
2022-10-14T22:09:35.302Z,7.53
2022-10-14T22:12:04.935Z,8.20
2022-10-14T22:14:34.981Z,7.97
2022-10-14T22:17:03.687Z,8.30
2022-10-14T22:19:32.570Z,7.77
2022-10-14T22:22:03.323Z,8.23
2022-10-14T22:24:32.053Z,8.63
2022-10-14T22:27:00.704Z,8.63
2022-10-14T22:29:29.469Z,9.00
2022-10-14T22:31:59.494Z,8.90
2022-10-14T22:34:28.034Z,9.00
2022-10-14T22:36:56.739Z,8.73
2022-10-14T22:39:27.159Z,8.93
2022-10-14T22:41:55.765Z,8.73
2022-10-14T22:44:24.566Z,8.97
2022-10-14T22:46:54.621Z,9.03
2022-10-14T22:49:24.740Z,9.50
2022-10-14T22:51:56.613Z,9.77
2022-10-14T22:54:25.685Z,9.47
2022-10-14T22:56:54.300Z,9.43
2022-10-14T22:59:22.961Z,9.50
2022-10-14T23:01:51.766Z,9.33
2022-10-14T23:04:20.868Z,9.00
2022-10-14T23:06:51.679Z,8.80
2022-10-14T23:09:20.321Z,8.87
2022-10-14T23:11:49.014Z,9.40
2022-10-14T23:14:17.700Z,8.97
2022-10-14T23:16:46.309Z,8.37
2022-10-14T23:19:14.932Z,8.27
2022-10-14T23:21:44.624Z,8.20
2022-10-14T23:24:14.734Z,9.17
2022-10-14T23:26:43.383Z,9.00
2022-10-14T23:29:13.046Z,8.73
2022-10-14T23:31:43.490Z,8.63
2022-10-14T23:34:15.157Z,7.70
2022-10-14T23:36:44.277Z,8.10
2022-10-14T23:39:14.480Z,8.07
2022-10-14T23:41:43.439Z,7.50
2022-10-14T23:44:13.110Z,8.27
2022-10-14T23:46:41.829Z,8.00
2022-10-14T23:49:26.024Z,7.40
2022-10-14T23:51:55.467Z,7.80
2022-10-14T23:54:25.728Z,7.97
2022-10-14T23:56:54.405Z,7.60
2022-10-14T23:59:23.059Z,8.10
